Flight Track Log - Related Links

Times and Time Zones

All times are in EDT time to prevent confusion due to time zone crossing. See the DAL407 flight status page for this flight to view local times or setup timezone preferences in your user account.

Time Position Orientation Groundspeed Altitude Reporting Facility
EDT Latitude Longitude Course Direction KTS MPH feet Rate Location/Type
Sat 08:04:51 PM 40.6333 -73.8667 331° Northwest 217 250 2,200  Level New York TRACON
Sat 08:05:57 PM 40.5667 -73.8333 159° South 297 342 5,200 2,619 Climbing New York TRACON
Sat 08:06:57 PM 40.6000 -73.7500 62° Northeast 285 328 7,700 2,500 Climbing New York TRACON
Sat 08:07:57 PM 40.6500 -73.6500 57° Northeast 300 345 10,200 2,600 Climbing New York TRACON
Sat 08:08:57 PM 40.7167 -73.6167 21° North 302 348 12,900 2,100 Climbing New York TRACON
Sat 08:09:57 PM 40.8000 -73.6333 351° North 308 354 14,400 1,450 Climbing New York TRACON
Sat 08:10:00 PM 41.1309 -74.1481 331° Northwest  Level FlightAware Approximate
Sat 08:10:57 PM 40.9000 -73.6667 346° North 370 426 15,800  Level New York TRACON
Sat 08:13:20 PM 41.0675 -73.8806 316° Northwest 368 423 18,800 1,441 Climbing New York Center
Sat 08:14:21 PM 41.1356 -73.9753 314° West 383 441 20,700 1,820 Climbing New York Center
Sat 08:15:22 PM 41.2100 -74.0794 314° West 390 449 22,500 1,918 Climbing New York Center
Sat 08:16:23 PM 41.3003 -74.2056 314° West 401 461 24,600 1,721 Climbing New York Center
Sat 08:17:24 PM 41.3792 -74.3178 313° West 402 463 26,000 1,317 Climbing New York Center
Sat 08:18:26 PM 41.4442 -74.4406 305° West 407 468 27,300 1,512 Climbing New York Center
Sat 08:19:27 PM 41.5036 -74.5797 300° West 407 468 29,100 1,426 Climbing New York Center
Sat 08:20:28 PM 41.5500 -74.6872 300° West 403 464 30,200 1,131 Climbing New York Center
Sat 08:21:29 PM 41.6053 -74.8172 300° West 403 464 31,400 1,180 Climbing New York Center
Sat 08:22:30 PM 41.6608 -74.9458 300° West 403 464 32,600 1,220 Climbing New York Center
Sat 08:23:32 PM 41.7264 -75.1011 300° West 402 463 33,900 1,122 Climbing New York Center
Sat 08:24:33 PM 41.7794 -75.2286 299° West 397 457 34,900 836 Climbing New York Center
Sat 08:25:34 PM 41.8339 -75.3561 300° West 397 457 35,600 541 Climbing New York Center
Sat 08:26:35 PM 41.8875 -75.4853 299° West 397 457 36,000 197 Climbing New York Center
Sat 08:27:36 PM 41.9431 -75.6161 300° West 404 465 36,000  Level New York Center
Sat 08:28:38 PM 41.9964 -75.7472 299° West 404 465 36,000  Level New York Center
Sat 08:29:39 PM 42.0503 -75.8758 299° West 401 461 36,000  Level New York Center
Sat 08:30:40 PM 42.1081 -76.0156 299° West 400 460 36,000  Level New York Center
Sat 08:31:41 PM 42.1614 -76.1467 299° West 400 460 36,000  Level New York Center
Sat 08:32:42 PM 42.2047 -76.2828 293° West 399 459 36,000  Level New York Center
Sat 08:33:34 PM 42.2472 -76.4158 293° West 396 456 36,000  Level Cleveland Center
Sat 08:34:35 PM 42.2897 -76.5503 293° West 394 453 36,000  Level Cleveland Center
Sat 08:35:36 PM 42.3325 -76.6844 293° West 392 451 36,000  Level Cleveland Center
Sat 08:36:38 PM 42.3739 -76.8189 293° West 391 450 36,000  Level Cleveland Center
Sat 08:37:39 PM 42.4181 -76.9556 294° West 392 451 36,000  Level Cleveland Center
Sat 08:38:40 PM 42.4597 -77.0914 293° West 394 453 36,000  Level Cleveland Center
Sat 08:39:41 PM 42.5019 -77.2272 293° West 394 453 36,000  Level Cleveland Center
Sat 08:40:43 PM 42.5436 -77.3628 293° West 392 451 36,000  Level Cleveland Center
Sat 08:41:44 PM 42.5931 -77.5233 293° West 392 451 36,000  Level Cleveland Center
Sat 08:42:45 PM 42.6339 -77.6564 293° West 391 450 36,000  Level Cleveland Center
Sat 08:43:46 PM 42.6758 -77.7933 293° West 390 449 36,000  Level Cleveland Center
Sat 08:44:47 PM 42.7133 -77.9194 292° West 396 456 36,000  Level Cleveland Center
Sat 08:45:49 PM 42.7544 -78.0558 292° West 393 452 36,000  Level Cleveland Center
Sat 08:46:50 PM 42.7947 -78.1936 292° West 392 451 36,000  Level Cleveland Center
Sat 08:47:51 PM 42.8439 -78.3608 292° West 393 452 36,000  Level Cleveland Center
Sat 08:48:52 PM 42.8853 -78.4986 292° West 394 453 36,000  Level Cleveland Center
Sat 08:49:53 PM 42.9250 -78.6386 291° West 395 455 36,000  Level Cleveland Center
Sat 08:50:54 PM 42.9364 -78.7872 276° West 394 453 36,000  Level Cleveland Center
Sat 08:52:10 PM 42.9333 -78.9500 269° West 390 449 36,000  Level Toronto Center
Sat 08:53:10 PM 42.9500 -79.1167 278° West 390 449 36,000  Level Toronto Center
Sat 08:54:10 PM 42.9500 -79.2500 270° West 390 449 36,000  Level Toronto Center
Sat 08:55:10 PM 42.9667 -79.4000 279° West 390 449 36,000  Level Toronto Center
Sat 08:56:10 PM 42.9667 -79.5500 270° West 390 449 36,000  Level Toronto Center
Sat 08:57:10 PM 42.9667 -79.7000 270° West 390 449 36,000  Level Toronto Center
Sat 08:58:10 PM 42.9833 -79.8333 280° West 390 449 36,000  Level Toronto Center
Sat 08:59:10 PM 42.9833 -80.0000 270° West 390 449 36,000  Level Toronto Center
Sat 09:00:10 PM 43.0000 -80.1500 279° West 390 449 36,000  Level Toronto Center
Sat 09:01:10 PM 43.0000 -80.3000 270° West 390 449 36,000  Level Toronto Center
Sat 09:02:10 PM 43.0000 -80.4500 270° West 390 449 36,000  Level Toronto Center
Sat 09:03:10 PM 43.0167 -80.5833 280° West 380 437 36,000  Level Toronto Center
Sat 09:04:10 PM 43.0167 -80.7333 270° West 380 437 36,000  Level Toronto Center
Sat 09:05:10 PM 43.0167 -80.8667 270° West 380 437 36,000  Level Toronto Center
Sat 09:06:10 PM 43.0167 -81.0167 270° West 380 437 36,000  Level Toronto Center
Sat 09:07:10 PM 43.0167 -81.1667 270° West 380 437 36,000  Level Toronto Center
Sat 09:08:10 PM 43.0500 -81.3000 289° West 380 437 36,000  Level Toronto Center
Sat 09:09:10 PM 43.0667 -81.4667 278° West 380 437 36,000  Level Toronto Center
Sat 09:10:10 PM 43.1000 -81.6000 289° West 390 449 36,000  Level Toronto Center
Sat 09:11:10 PM 43.1167 -81.7333 280° West 390 449 36,000  Level Toronto Center
Sat 09:12:10 PM 43.1333 -81.9000 278° West 390 449 36,000  Level Toronto Center
Sat 09:13:10 PM 43.1500 -82.0333 280° West 390 449 36,000  Level Toronto Center
Sat 09:14:10 PM 43.1667 -82.1667 280° West 390 449 36,000  Level Toronto Center
Sat 09:15:10 PM 43.2000 -82.3333 285° West 390 449 36,000  Level Toronto Center
Sat 09:16:10 PM 43.2167 -82.4667 280° West 390 449 36,000  Level Toronto Center
Sat 09:17:10 PM 43.2333 -82.6000 280° West 390 449 36,000  Level Toronto Center
Sat 09:17:59 PM 43.2558 -82.7322 283° West 392 451 36,000  Level Cleveland Center
Sat 09:19:00 PM 43.2558 -82.8814 270° West 394 453 36,000  Level Cleveland Center
Sat 09:20:02 PM 43.2564 -83.0303 270° West 393 452 36,000  Level Cleveland Center
Sat 09:21:03 PM 43.2547 -83.1792 269° West 393 452 36,000  Level Cleveland Center
Sat 09:22:04 PM 43.2536 -83.3556 270° West 391 450 36,000  Level Cleveland Center
Sat 09:23:05 PM 43.2533 -83.5044 270° West 391 450 36,000  Level Cleveland Center
Sat 09:24:06 PM 43.2508 -83.6519 269° West 391 450 36,000  Level Cleveland Center
Sat 09:25:07 PM 43.2506 -83.8008 270° West 391 450 36,000  Level Cleveland Center
Sat 09:26:08 PM 43.2489 -83.9494 269° West 391 450 36,000  Level Cleveland Center
Sat 09:27:09 PM 43.2464 -84.1075 269° West 391 450 36,000  Level Cleveland Center
Sat 09:28:10 PM 43.2447 -84.2567 269° West 391 450 36,000  Level Cleveland Center
Sat 09:29:11 PM 43.2411 -84.4053 268° West 392 451 36,000  Level Cleveland Center
Sat 09:30:13 PM 43.2394 -84.5553 269° West 393 452 36,000  Level Cleveland Center
Sat 09:31:13 PM 43.2361 -84.7058 268° West 394 453 36,000  Level Cleveland Center
Sat 09:32:14 PM 43.2339 -84.8569 269° West 395 455 36,000  Level Cleveland Center
Sat 09:33:15 PM 43.2311 -85.0067 269° West 395 455 36,000  Level Cleveland Center
Sat 09:34:16 PM 43.2281 -85.1575 268° West 395 455 36,000  Level Cleveland Center
Sat 09:35:17 PM 43.2247 -85.3083 268° West 397 457 36,000  Level Cleveland Center
Sat 09:36:18 PM 43.2200 -85.4872 268° West 396 456 36,000  Level Cleveland Center
Sat 09:37:29 PM 43.2167 -85.6358 268° West 396 456 36,000  Level Chicago Center
Sat 09:38:30 PM 43.2119 -85.8147 268° West 396 456 36,000  Level Chicago Center
Sat 09:39:31 PM 43.2075 -85.9628 268° West 396 456 36,000  Level Chicago Center
Sat 09:40:32 PM 43.2039 -86.1114 268° West 396 456 36,000  Level Chicago Center
Sat 09:41:33 PM 43.1994 -86.2614 268° West 397 457 36,000  Level Chicago Center
Sat 09:42:34 PM 43.1942 -86.4097 267° West 392 451 36,000  Level Chicago Center
Sat 09:43:35 PM 43.1900 -86.5636 268° West 403 464 36,000  Level Chicago Center
Sat 09:44:36 PM 43.1842 -86.7139 267° West 403 464 36,000  Level Chicago Center
Sat 09:45:37 PM 43.1797 -86.8647 268° West 399 459 36,000  Level Chicago Center
Sat 09:46:37 PM 43.1717 -87.0464 267° West 399 459 36,000  Level Chicago Center
Sat 09:47:38 PM 43.1653 -87.1981 267° West 399 459 36,000  Level Chicago Center
Sat 09:48:39 PM 43.1589 -87.3503 267° West 399 459 36,000  Level Chicago Center
Sat 09:49:40 PM 43.1528 -87.4972 267° West 388 447 36,000  Level Chicago Center
Sat 09:50:41 PM 43.1464 -87.6503 267° West 398 458 36,000  Level Chicago Center
Sat 09:51:42 PM 43.1394 -87.8025 266° West 399 459 36,000  Level Chicago Center
Sat 09:52:43 PM 43.1322 -87.9542 266° West 399 459 36,000  Level Chicago Center
Sat 09:53:43 PM 43.1247 -88.1050 266° West 399 459 36,000  Level Chicago Center
Sat 09:54:44 PM 43.1178 -88.2564 266° West 399 459 36,000  Level Chicago Center
Sat 09:55:45 PM 43.0836 -88.4036 252° West 403 464 36,000  Level Chicago Center
Sat 09:56:46 PM 43.0442 -88.5439 249° West 397 457 36,000  Level Chicago Center
Sat 09:57:47 PM 43.0039 -88.6861 249° West 397 457 36,000  Level Chicago Center
Sat 09:58:47 PM 42.9636 -88.8283 249° West 398 458 36,000  Level Chicago Center
Sat 09:59:49 PM 42.9228 -88.9711 249° West 399 459 36,000  Level Chicago Center
Sat 10:00:50 PM 42.8803 -89.1119 248° West 401 461 36,000  Level Chicago Center
Sat 10:01:50 PM 42.8394 -89.2514 248° West 397 457 36,000  Level Chicago Center
Sat 10:02:51 PM 42.7978 -89.3931 248° West 397 457 36,000  Level Chicago Center
Sat 10:03:52 PM 42.7486 -89.5611 248° West 400 460 36,000  Level Chicago Center
Sat 10:04:52 PM 42.7075 -89.7014 248° West 400 460 36,000  Level Chicago Center
Sat 10:05:53 PM 42.6650 -89.8414 248° West 400 460 36,000  Level Chicago Center
Sat 10:06:54 PM 42.6233 -89.9794 248° West 401 461 36,000  Level Chicago Center
Sat 10:07:55 PM 42.5789 -90.1217 247° West 409 471 36,000  Level Chicago Center
Sat 10:08:55 PM 42.5433 -90.2553 250° West 396 456 36,000  Level Chicago Center
Sat 10:09:56 PM 42.5014 -90.3928 248° West 394 453 36,000  Level Chicago Center
Sat 10:10:56 PM 42.4594 -90.5292 247° West 394 453 36,000  Level Chicago Center
Sat 10:11:57 PM 42.4172 -90.6669 247° West 395 455 36,000  Level Chicago Center
Sat 10:12:58 PM 42.3925 -90.8100 257° West 404 465 36,000  Level Chicago Center
Sat 10:13:58 PM 42.3786 -90.9567 263° West 399 459 36,000  Level Chicago Center
Sat 10:14:59 PM 42.3633 -91.1031 262° West 398 458 36,000  Level Chicago Center
Sat 10:16:00 PM 42.3472 -91.2486 262° West 397 457 36,000  Level Chicago Center
Sat 10:17:00 PM 42.3317 -91.3969 262° West 404 465 36,000  Level Chicago Center
Sat 10:18:01 PM 42.3161 -91.5433 262° West 398 458 36,000  Level Chicago Center
Sat 10:19:02 PM 42.3000 -91.6892 262° West 394 453 36,000  Level Chicago Center
Sat 10:20:02 PM 42.2842 -91.8356 262° West 394 453 36,000  Level Chicago Center
Sat 10:21:03 PM 42.2678 -91.9808 261° West 393 452 36,000  Level Chicago Center
Sat 10:22:03 PM 42.2483 -92.1550 261° West 392 451 36,000  Level Chicago Center
Sat 10:23:04 PM 42.2314 -92.2994 261° West 392 451 36,000  Level Chicago Center
Sat 10:24:02 PM 42.2194 -92.4164 262° West 394 453 36,000  Level Minneapolis Center
Sat 10:25:02 PM 42.1994 -92.5894 261° West 394 453 36,000  Level Minneapolis Center
Sat 10:26:03 PM 42.1819 -92.7333 261° West 394 453 36,000  Level Minneapolis Center
Sat 10:27:07 PM 42.1647 -92.8772 261° West 393 452 36,000  Level Chicago Center
Sat 10:28:07 PM 42.1481 -93.0222 261° West 392 451 36,000  Level Chicago Center
Sat 10:29:08 PM 42.1303 -93.1661 261° West 392 451 36,000  Level Chicago Center
Sat 10:30:08 PM 42.1125 -93.3111 261° West 392 451 36,000  Level Chicago Center
Sat 10:31:09 PM 42.0950 -93.4572 261° West 394 453 36,000  Level Chicago Center
Sat 10:32:10 PM 42.0764 -93.6011 260° West 394 453 36,000  Level Chicago Center
Sat 10:33:09 PM 42.0581 -93.7478 260° West 395 455 36,000 454 Level Minneapolis Center
Sat 10:34:09 PM 42.0383 -93.9058 261° West 395 455 36,900 893 Climbing Minneapolis Center
Sat 10:35:10 PM 42.0203 -94.0497 260° West 393 452 37,800 541 Climbing Minneapolis Center
Sat 10:36:11 PM 42.0008 -94.1911 260° West 389 448 38,000 98 Climbing Minneapolis Center
Sat 10:37:12 PM 41.9814 -94.3369 260° West 393 452 38,000  Level Minneapolis Center
Sat 10:38:12 PM 41.9625 -94.4833 260° West 395 455 38,000  Level Minneapolis Center
Sat 10:39:13 PM 41.9431 -94.6289 260° West 398 458 38,000  Level Minneapolis Center
Sat 10:40:14 PM 41.9239 -94.7739 260° West 398 458 38,000  Level Minneapolis Center
Sat 10:41:15 PM 41.9042 -94.9197 260° West 398 458 38,000  Level Minneapolis Center
Sat 10:42:15 PM 41.8831 -95.0658 259° West 398 458 38,000  Level Minneapolis Center
Sat 10:43:16 PM 41.8631 -95.2125 260° West 398 458 38,000  Level Minneapolis Center
Sat 10:44:17 PM 41.8433 -95.3569 260° West 398 458 38,000  Level Minneapolis Center
Sat 10:45:18 PM 41.8217 -95.5025 259° West 398 458 38,000  Level Minneapolis Center
Sat 10:46:18 PM 41.7975 -95.6761 259° West 398 458 38,000  Level Minneapolis Center
Sat 10:47:19 PM 41.7756 -95.8206 259° West 398 458 38,000  Level Minneapolis Center
Sat 10:48:20 PM 41.7544 -95.9656 259° West 399 459 38,000  Level Minneapolis Center
Sat 10:49:21 PM 41.7333 -96.1094 259° West 399 459 38,000  Level Minneapolis Center
Sat 10:50:21 PM 41.7117 -96.2528 259° West 399 459 38,000  Level Minneapolis Center
Sat 10:51:22 PM 41.6903 -96.3967 259° West 399 459 38,000  Level Minneapolis Center
Sat 10:52:23 PM 41.6689 -96.5406 259° West 399 459 38,000  Level Minneapolis Center
Sat 10:53:24 PM 41.6469 -96.6831 258° West 398 458 38,000  Level Minneapolis Center
Sat 10:54:24 PM 41.6242 -96.8253 258° West 397 457 38,000  Level Minneapolis Center
Sat 10:55:25 PM 41.6019 -96.9672 258° West 395 455 38,000  Level Minneapolis Center
Sat 10:56:26 PM 41.5792 -97.1100 258° West 395 455 38,000  Level Minneapolis Center
Sat 10:57:27 PM 41.5572 -97.2525 258° West 395 455 38,000  Level Minneapolis Center
Sat 10:58:27 PM 41.5289 -97.4272 258° West 397 457 38,000  Level Minneapolis Center
Sat 10:59:28 PM 41.5044 -97.5744 258° West 403 464 38,000  Level Minneapolis Center
Sat 11:00:29 PM 41.4814 -97.7186 258° West 403 464 38,000  Level Minneapolis Center
Sat 11:01:30 PM 41.4572 -97.8650 258° West 403 464 38,000  Level Minneapolis Center
Sat 11:02:30 PM 41.4333 -98.0117 258° West 403 464 38,000  Level Minneapolis Center
Sat 11:03:31 PM 41.4075 -98.1650 257° West 405 466 38,000  Level Minneapolis Center
Sat 11:04:32 PM 41.3836 -98.3100 258° West 405 466 38,000  Level Minneapolis Center
Sat 11:05:33 PM 41.3517 -98.4539 254° West 405 466 38,000  Level Minneapolis Center
Sat 11:06:33 PM 41.3186 -98.5914 252° West 405 466 38,000  Level Minneapolis Center
Sat 11:07:34 PM 41.2819 -98.7328 251° West 405 466 38,000  Level Minneapolis Center
Sat 11:08:35 PM 41.2514 -98.8767 254° West 405 466 38,000  Level Minneapolis Center
Sat 11:09:35 PM 41.2286 -99.0208 258° West 405 466 38,000  Level Minneapolis Center
Sat 11:10:36 PM 41.2017 -99.1603 256° West 404 465 38,000  Level Minneapolis Center
Sat 11:11:37 PM 41.1742 -99.3042 256° West 404 465 38,000  Level Minneapolis Center
Sat 11:12:37 PM 41.1417 -99.4753 256° West 404 465 38,000  Level Minneapolis Center
Sat 11:13:38 PM 41.1131 -99.6222 256° West 406 467 38,000  Level Minneapolis Center
Sat 11:14:39 PM 41.0822 -99.7672 254° West 407 468 38,000  Level Minneapolis Center
Sat 11:15:39 PM 41.0533 -99.9125 255° West 407 468 38,000  Level Minneapolis Center
Sat 11:16:40 PM 41.0242 -100.0586 255° West 408 470 38,000  Level Minneapolis Center
Sat 11:17:41 PM 40.9953 -100.2056 255° West 409 471 38,000  Level Minneapolis Center
Sat 11:18:41 PM 40.9653 -100.3525 255° West 413 475 38,000  Level Minneapolis Center
Sat 11:19:42 PM 40.9356 -100.4978 255° West 412 474 38,000  Level Minneapolis Center
Sat 11:21:02 PM 40.8944 -100.7036 255° West 412 474 38,000  Level Denver Center
Sat 11:22:03 PM 40.8631 -100.8481 254° West 412 474 38,000  Level Denver Center
Sat 11:23:04 PM 40.8331 -100.9950 255° West 412 474 38,000  Level Denver Center
Sat 11:24:05 PM 40.8031 -101.1336 254° West 412 474 38,000  Level Denver Center
Sat 11:25:06 PM 40.7733 -101.2739 254° West 413 475 38,000  Level Denver Center
Sat 11:26:07 PM 40.7378 -101.4381 254° West 415 478 38,000  Level Denver Center
Sat 11:27:08 PM 40.7081 -101.5778 254° West 415 478 38,000  Level Denver Center
Sat 11:28:09 PM 40.6778 -101.7192 254° West 418 481 38,000  Level Denver Center
Sat 11:29:09 PM 40.6411 -101.8858 254° West 421 484 38,000  Level Denver Center
Sat 11:30:10 PM 40.6094 -102.0283 254° West 422 486 38,000  Level Denver Center
Sat 11:31:11 PM 40.5775 -102.1706 254° West 422 486 38,000  Level Denver Center
Sat 11:32:12 PM 40.5411 -102.3369 254° West 423 487 38,000  Level Denver Center
Sat 11:33:13 PM 40.5094 -102.4786 254° West 423 487 38,000  Level Denver Center
Sat 11:34:14 PM 40.4719 -102.6472 254° West 428 493 38,000 -98 Level Denver Center
Sat 11:35:15 PM 40.4439 -102.7703 253° West 427 491 37,800 -545 Descending Denver Center
Sat 11:36:15 PM 40.4094 -102.9172 253° West 422 486 36,900 -1,091 Descending Denver Center
Sat 11:37:16 PM 40.3697 -103.0950 254° West 422 486 35,600 -2,066 Descending Denver Center
Sat 11:38:17 PM 40.3364 -103.2414 253° West 423 487 32,700 -3,393 Descending Denver Center
Sat 11:39:18 PM 40.3003 -103.3889 252° West 423 487 28,700 -3,098 Descending Denver Center
Sat 11:40:19 PM 40.2672 -103.5328 253° West 420 483 26,400 -1,869 Descending Denver Center
Sat 11:41:20 PM 40.2344 -103.6708 253° West 404 465 24,900 -1,934 Descending Denver Center
Sat 11:42:20 PM 40.2081 -103.8089 256° West 396 456 22,500 -1,835 Descending Denver Center
Sat 11:43:21 PM 40.1636 -103.9314 245° Southwest 381 438 21,200 -1,721 Descending Denver Center
Sat 11:44:22 PM 40.1089 -104.0508 239° Southwest 366 421 19,000 -2,164 Descending Denver Center
Sat 11:45:23 PM 40.0550 -104.1664 239° Southwest 367 422 16,800 -2,066 Descending Denver Center
Sat 11:46:24 PM 40.0017 -104.2811 239° Southwest 369 425 14,800 -1,835 Descending Denver Center
Sat 11:47:24 PM 39.9464 -104.3997 239° Southwest 358 412 13,100 -1,339 Descending Denver Center
Sat 11:48:25 PM 39.8922 -104.4947 233° Southwest 339 390 12,100 -984 Descending Denver Center
Sat 11:49:26 PM 39.8103 -104.4992 182° South 296 341 11,100 -934 Descending Denver Center
Sat 11:50:27 PM 39.7344 -104.5017 181° South 275 316 10,200 -1,041 Descending Denver Center
Sat 11:51:27 PM 39.6839 -104.5350 207° Southwest 229 264 9,000 -1,140 Descending Denver Center
Sat 11:52:28 PM 39.6936 -104.6031 281° West 211 243 7,900 -787 Descending Denver Center
Sat 11:53:29 PM 39.7358 -104.6472 321° Northwest 201 231 7,400 -738 Descending Denver Center
Sat 11:54:30 PM 39.7756 -104.6606 346° North 156 180 6,400 -893 Descending Denver Center
Sat 11:55:30 PM 39.8208 -104.6606 360° North 152 175 5,600 -800 Descending Denver Center

Login

Don't have an account? Register now (free) for customized features, flight alerts, and more!